Time;durP1;ratioP1;P1;durP2;ratioP2;P2;SDS_P1;SDS_P2;PMS_P1;PMS_P2;Temp;Humidity;BMP_temperature;BMP_pressure;BME280_temperature;BME280_humidity;BME280_pressure;Samples;Min_cycle;Max_cycle;Signal;HPM_P1;HPM_P2
2021/10/14 00:00:13;;;;;;;27.23;11.52;;;;;;;;;;5072785;28;20025;-65
2021/10/14 00:02:38;;;;;;;30.02;10.10;;;;;;;;;;5071237;28;20062;-65
2021/10/14 00:05:04;;;;;;;21.60;10.35;;;;;;;;;;5066427;28;20047;-65
2021/10/14 00:07:29;;;;;;;27.83;10.35;;;;;;;;;;5059679;28;20481;-64
2021/10/14 00:09:54;;;;;;;24.90;9.80;;;;;;;;;;5072167;28;20025;-67
2021/10/14 00:12:19;;;;;;;19.67;9.27;;;;;;;;;;5059797;28;20332;-68
2021/10/14 00:14:45;;;;;;;26.23;10.90;;;;;;;;;;5065199;28;20271;-64
2021/10/14 00:17:10;;;;;;;26.33;10.15;;;;;;;;;;5063600;28;20263;-68
2021/10/14 00:19:36;;;;;;;28.20;11.13;;;;;;;;;;5067328;28;20420;-68
2021/10/14 00:22:01;;;;;;;19.20;9.43;;;;;;;;;;5071459;28;20087;-65
2021/10/14 00:24:26;;;;;;;31.92;10.18;;;;;;;;;;5072161;28;20096;-65
2021/10/14 00:26:51;;;;;;;27.43;10.17;;;;;;;;;;5070829;28;20042;-65
2021/10/14 00:29:16;;;;;;;28.13;10.68;;;;;;;;;;5062050;28;20275;-65
2021/10/14 00:31:42;;;;;;;26.40;10.02;;;;;;;;;;5069942;28;20028;-65
2021/10/14 00:34:07;;;;;;;28.45;10.45;;;;;;;;;;5070712;28;20029;-66
2021/10/14 00:36:32;;;;;;;31.35;10.48;;;;;;;;;;5070903;28;20483;-65
2021/10/14 00:38:57;;;;;;;29.77;9.95;;;;;;;;;;5069720;28;20021;-65
2021/10/14 00:41:22;;;;;;;24.00;9.93;;;;;;;;;;5071691;28;20032;-65
2021/10/14 00:43:47;;;;;;;26.73;9.80;;;;;;;;;;5070536;28;20658;-66
2021/10/14 00:46:17;;;;;;;30.75;10.32;;;;;;;;;;5060672;28;20276;-65
2021/10/14 00:48:42;;;;;;;26.00;11.30;;;;;;;;;;5071377;28;20035;-66
2021/10/14 00:51:07;;;;;;;26.33;11.20;;;;;;;;;;5070396;28;20123;-64
2021/10/14 00:53:36;;;;;;;21.10;9.75;;;;;;;;;;5064971;28;20035;-62
2021/10/14 00:56:01;;;;;;;20.25;9.60;;;;;;;;;;5070060;28;20028;-62
2021/10/14 00:58:26;;;;;;;23.83;10.87;;;;;;;;;;5067259;28;20025;-64
2021/10/14 01:00:51;;;;;;;26.10;9.73;;;;;;;;;;5064649;28;20295;-63
2021/10/14 01:03:16;;;;;;;25.60;10.57;;;;;;;;;;5070018;28;20260;-64
2021/10/14 01:05:42;;;;;;;26.83;9.88;;;;;;;;;;5070751;28;20035;-65
2021/10/14 01:08:07;;;;;;;24.40;9.93;;;;;;;;;;5070556;28;20052;-66
2021/10/14 01:10:32;;;;;;;16.43;9.30;;;;;;;;;;5063315;28;20767;-65
2021/10/14 01:12:57;;;;;;;26.60;9.57;;;;;;;;;;5055545;28;20274;-67
2021/10/14 01:15:26;;;;;;;25.25;10.98;;;;;;;;;;5058172;28;20021;-65
2021/10/14 01:17:53;;;;;;;24.92;9.77;;;;;;;;;;5070193;28;20024;-65
2021/10/14 01:20:18;;;;;;;21.50;8.77;;;;;;;;;;5070058;28;20143;-65
2021/10/14 01:22:43;;;;;;;18.40;9.23;;;;;;;;;;5069413;28;20104;-65
2021/10/14 01:25:09;;;;;;;22.33;9.20;;;;;;;;;;5070314;28;20258;-65
2021/10/14 01:27:34;;;;;;;23.25;9.57;;;;;;;;;;5063758;28;20267;-65
2021/10/14 01:29:59;;;;;;;20.02;9.98;;;;;;;;;;5070394;28;20031;-65
2021/10/14 01:32:24;;;;;;;24.05;9.27;;;;;;;;;;5070241;28;20036;-64
2021/10/14 01:34:50;;;;;;;23.87;10.43;;;;;;;;;;5070147;28;20487;-65
2021/10/14 01:37:15;;;;;;;26.73;9.77;;;;;;;;;;5070719;28;20266;-64
2021/10/14 01:39:40;;;;;;;25.83;10.35;;;;;;;;;;5070359;28;20024;-65
2021/10/14 01:42:05;;;;;;;22.92;9.60;;;;;;;;;;5070213;28;20097;-67
2021/10/14 01:44:31;;;;;;;24.27;9.43;;;;;;;;;;5069697;28;20041;-65
2021/10/14 01:46:56;;;;;;;21.67;10.63;;;;;;;;;;5070581;28;20267;-67
2021/10/14 01:49:21;;;;;;;27.90;10.13;;;;;;;;;;5070392;28;20024;-64
2021/10/14 01:51:46;;;;;;;24.27;9.17;;;;;;;;;;5069832;28;20365;-66
2021/10/14 01:54:11;;;;;;;20.13;8.17;;;;;;;;;;5070248;28;20837;-65
2021/10/14 01:56:37;;;;;;;30.30;9.35;;;;;;;;;;5069720;28;20275;-65
2021/10/14 01:59:02;;;;;;;25.30;9.68;;;;;;;;;;5070323;28;20056;-64
2021/10/14 02:01:27;;;;;;;18.20;8.20;;;;;;;;;;5070594;28;20036;-66
2021/10/14 02:03:52;;;;;;;30.02;10.10;;;;;;;;;;5069741;28;20066;-63
2021/10/14 02:06:17;;;;;;;20.77;8.47;;;;;;;;;;5070024;28;20377;-64
2021/10/14 02:08:43;;;;;;;22.27;8.70;;;;;;;;;;5069989;28;20262;-64
2021/10/14 02:11:08;;;;;;;17.95;7.97;;;;;;;;;;5070226;28;20281;-64
2021/10/14 02:13:33;;;;;;;17.42;7.38;;;;;;;;;;5069802;28;20021;-63
2021/10/14 02:15:58;;;;;;;20.33;9.25;;;;;;;;;;5068682;28;20025;-64
2021/10/14 02:18:23;;;;;;;24.48;8.10;;;;;;;;;;5070410;28;20026;-63
2021/10/14 02:20:49;;;;;;;21.83;8.93;;;;;;;;;;5069816;28;20035;-63
2021/10/14 02:23:14;;;;;;;23.40;8.87;;;;;;;;;;5069584;28;20067;-62
2021/10/14 02:25:39;;;;;;;25.35;8.95;;;;;;;;;;5069497;28;20266;-64
2021/10/14 02:28:04;;;;;;;18.92;8.85;;;;;;;;;;5070005;28;20207;-63
2021/10/14 02:30:29;;;;;;;19.08;7.78;;;;;;;;;;5070111;28;20102;-65
2021/10/14 02:32:55;;;;;;;21.83;8.32;;;;;;;;;;5069125;28;20401;-62
2021/10/14 02:35:20;;;;;;;19.77;7.40;;;;;;;;;;5069989;28;20032;-64
2021/10/14 02:37:45;;;;;;;20.52;7.65;;;;;;;;;;5069836;28;20027;-62
2021/10/14 02:40:11;;;;;;;22.23;8.95;;;;;;;;;;5069060;28;20074;-64
2021/10/14 02:42:36;;;;;;;19.25;7.97;;;;;;;;;;5069274;28;20280;-64
2021/10/14 02:45:01;;;;;;;21.67;8.47;;;;;;;;;;5069514;28;20028;-66
2021/10/14 02:47:26;;;;;;;14.57;7.70;;;;;;;;;;5069995;28;20278;-63
2021/10/14 02:49:52;;;;;;;21.23;9.15;;;;;;;;;;5069599;28;20469;-62
2021/10/14 02:52:17;;;;;;;23.55;9.30;;;;;;;;;;5069870;28;20063;-63
2021/10/14 02:54:42;;;;;;;19.83;8.80;;;;;;;;;;5069173;28;20024;-63
2021/10/14 02:57:07;;;;;;;20.08;9.77;;;;;;;;;;5068988;28;20274;-63
2021/10/14 02:59:32;;;;;;;24.75;10.18;;;;;;;;;;5069232;28;20028;-64
2021/10/14 03:01:58;;;;;;;29.92;11.10;;;;;;;;;;5069750;28;20530;-63
2021/10/14 03:04:23;;;;;;;28.17;12.25;;;;;;;;;;5069295;28;20130;-64
2021/10/14 03:06:48;;;;;;;24.85;10.65;;;;;;;;;;5069601;28;20029;-62
2021/10/14 03:09:13;;;;;;;20.50;10.93;;;;;;;;;;5068841;28;20078;-64
2021/10/14 03:11:38;;;;;;;20.33;10.30;;;;;;;;;;5068986;28;20058;-62
2021/10/14 03:14:04;;;;;;;23.70;7.80;;;;;;;;;;5069508;28;20020;-64
2021/10/14 03:16:29;;;;;;;28.60;9.05;;;;;;;;;;5069605;28;20275;-63
2021/10/14 03:18:55;;;;;;;27.15;9.88;;;;;;;;;;5070143;28;20276;-65
2021/10/14 03:21:20;;;;;;;24.38;9.25;;;;;;;;;;5069288;28;20048;-65
2021/10/14 03:23:45;;;;;;;24.73;10.55;;;;;;;;;;5069305;28;20017;-65
2021/10/14 03:26:11;;;;;;;19.27;8.82;;;;;;;;;;5068903;28;20016;-66
2021/10/14 03:28:36;;;;;;;24.20;10.40;;;;;;;;;;5071424;28;20020;-66
2021/10/14 03:31:02;;;;;;;25.52;9.85;;;;;;;;;;5072368;28;20031;-66
2021/10/14 03:33:28;;;;;;;18.20;10.98;;;;;;;;;;5072351;28;20154;-65
2021/10/14 03:35:53;;;;;;;21.73;9.65;;;;;;;;;;5072364;28;20028;-65
2021/10/14 03:38:18;;;;;;;20.83;10.00;;;;;;;;;;5072272;28;20055;-66
2021/10/14 03:40:43;;;;;;;31.95;11.15;;;;;;;;;;5072443;28;20024;-65
2021/10/14 03:43:09;;;;;;;23.53;10.60;;;;;;;;;;5072385;28;20028;-65
2021/10/14 03:45:34;;;;;;;26.40;10.90;;;;;;;;;;5072362;28;20266;-65
2021/10/14 03:47:59;;;;;;;28.27;11.30;;;;;;;;;;5072725;28;20354;-65
2021/10/14 03:50:24;;;;;;;27.50;10.98;;;;;;;;;;5072847;28;20465;-66
2021/10/14 03:52:50;;;;;;;23.85;11.35;;;;;;;;;;5071995;28;20513;-65
2021/10/14 03:55:15;;;;;;;34.35;11.40;;;;;;;;;;5072493;28;20038;-65
2021/10/14 03:57:40;;;;;;;31.70;11.40;;;;;;;;;;5072388;28;20035;-65
2021/10/14 04:00:06;;;;;;;32.30;11.98;;;;;;;;;;5071782;28;20024;-65
2021/10/14 04:02:31;;;;;;;29.30;12.45;;;;;;;;;;5070827;28;20043;-67
2021/10/14 04:04:56;;;;;;;27.65;12.30;;;;;;;;;;5071929;28;20400;-65
2021/10/14 04:07:21;;;;;;;26.63;12.33;;;;;;;;;;5071898;28;20021;-65
2021/10/14 04:09:46;;;;;;;27.20;11.20;;;;;;;;;;5072339;28;20267;-65
2021/10/14 04:12:12;;;;;;;35.53;13.52;;;;;;;;;;5071971;28;20032;-66
2021/10/14 04:14:37;;;;;;;30.58;11.35;;;;;;;;;;5072027;28;20048;-64
2021/10/14 04:17:02;;;;;;;31.27;11.60;;;;;;;;;;5071686;28;20028;-66
2021/10/14 04:19:27;;;;;;;25.98;11.13;;;;;;;;;;5071773;28;20643;-65
2021/10/14 04:21:52;;;;;;;30.57;10.83;;;;;;;;;;5071817;28;20035;-65
2021/10/14 04:24:21;;;;;;;23.50;10.85;;;;;;;;;;5072188;28;20695;-65
2021/10/14 04:26:46;;;;;;;22.75;9.75;;;;;;;;;;5071373;28;20028;-64
2021/10/14 04:29:11;;;;;;;25.15;9.55;;;;;;;;;;5072132;28;20492;-65
2021/10/14 04:31:37;;;;;;;28.48;10.45;;;;;;;;;;5071276;28;20429;-65
2021/10/14 04:34:02;;;;;;;24.63;10.40;;;;;;;;;;5070946;28;20552;-66
2021/10/14 04:36:27;;;;;;;22.58;10.52;;;;;;;;;;5071501;28;20036;-64
2021/10/14 04:38:53;;;;;;;32.38;11.75;;;;;;;;;;5070672;28;20347;-66
2021/10/14 04:41:18;;;;;;;30.33;11.45;;;;;;;;;;5071265;28;20016;-66
2021/10/14 04:43:44;;;;;;;35.63;11.98;;;;;;;;;;5071650;28;20099;-65
2021/10/14 04:46:09;;;;;;;28.87;11.47;;;;;;;;;;5071470;28;20396;-65
2021/10/14 04:48:34;;;;;;;24.67;11.10;;;;;;;;;;5070805;28;20296;-65
2021/10/14 04:50:59;;;;;;;25.80;11.23;;;;;;;;;;5071639;28;20032;-63
2021/10/14 04:53:24;;;;;;;37.58;11.50;;;;;;;;;;5070913;28;20267;-65
2021/10/14 04:55:50;;;;;;;31.67;11.37;;;;;;;;;;5071000;28;20024;-63
2021/10/14 04:58:15;;;;;;;30.37;11.37;;;;;;;;;;5071484;28;20368;-65
2021/10/14 05:00:40;;;;;;;25.15;10.90;;;;;;;;;;5071080;28;20270;-65
2021/10/14 05:03:05;;;;;;;43.78;10.60;;;;;;;;;;5070526;28;20107;-65
2021/10/14 05:05:30;;;;;;;30.17;12.98;;;;;;;;;;5069593;28;20031;-65
2021/10/14 05:07:55;;;;;;;29.90;11.10;;;;;;;;;;5070944;28;20338;-68
2021/10/14 05:10:21;;;;;;;46.33;14.07;;;;;;;;;;5071130;28;20282;-65
2021/10/14 05:12:46;;;;;;;34.40;11.68;;;;;;;;;;5070655;28;20281;-67
2021/10/14 05:15:11;;;;;;;30.48;12.77;;;;;;;;;;5070214;28;20009;-66
2021/10/14 05:17:36;;;;;;;33.53;12.45;;;;;;;;;;5070744;28;20024;-68
2021/10/14 05:20:03;;;;;;;34.13;12.98;;;;;;;;;;5070651;28;20020;-67
2021/10/14 05:22:28;;;;;;;33.28;13.77;;;;;;;;;;5070415;28;20096;-68
2021/10/14 05:24:54;;;;;;;26.42;13.05;;;;;;;;;;5070168;28;20119;-66
2021/10/14 05:27:19;;;;;;;41.38;15.60;;;;;;;;;;5071129;28;20029;-67
2021/10/14 05:29:44;;;;;;;39.65;13.77;;;;;;;;;;5070285;28;20027;-67
2021/10/14 05:32:09;;;;;;;32.47;13.50;;;;;;;;;;5070599;28;20056;-66
2021/10/14 05:34:35;;;;;;;29.35;13.43;;;;;;;;;;5070297;28;20035;-67
2021/10/14 05:37:00;;;;;;;36.35;15.00;;;;;;;;;;5069903;28;20028;-66
2021/10/14 05:39:25;;;;;;;36.50;13.40;;;;;;;;;;5069992;28;20020;-67
2021/10/14 05:41:50;;;;;;;33.33;14.15;;;;;;;;;;5070678;28;20031;-66
2021/10/14 05:44:16;;;;;;;25.45;12.32;;;;;;;;;;5070449;28;20016;-66
2021/10/14 05:46:41;;;;;;;25.98;10.77;;;;;;;;;;5069998;28;20404;-66
2021/10/14 05:49:06;;;;;;;28.98;12.32;;;;;;;;;;5069842;28;20023;-65
2021/10/14 05:51:31;;;;;;;43.15;13.82;;;;;;;;;;5069927;28;20067;-68
2021/10/14 05:53:56;;;;;;;38.42;14.20;;;;;;;;;;5069605;28;20016;-67
2021/10/14 05:56:24;;;;;;;25.23;12.07;;;;;;;;;;5069857;28;20027;-67
2021/10/14 05:58:49;;;;;;;33.28;15.07;;;;;;;;;;5069706;28;20178;-67
2021/10/14 06:01:14;;;;;;;41.53;13.33;;;;;;;;;;5069670;28;20513;-68
2021/10/14 06:03:39;;;;;;;32.60;13.05;;;;;;;;;;5069589;28;20259;-67
2021/10/14 06:06:04;;;;;;;24.40;13.13;;;;;;;;;;5070679;28;20016;-67
2021/10/14 06:08:30;;;;;;;30.52;13.65;;;;;;;;;;5069982;28;20275;-67
2021/10/14 06:10:55;;;;;;;28.73;13.73;;;;;;;;;;5070146;28;20420;-67
2021/10/14 06:13:21;;;;;;;39.53;13.93;;;;;;;;;;5069610;28;20332;-67
2021/10/14 06:15:46;;;;;;;36.50;14.32;;;;;;;;;;5069017;28;20134;-65
2021/10/14 06:18:11;;;;;;;35.08;13.98;;;;;;;;;;5069851;28;20021;-65
2021/10/14 06:20:36;;;;;;;29.13;12.40;;;;;;;;;;5069825;28;20550;-66
2021/10/14 06:23:02;;;;;;;25.90;12.70;;;;;;;;;;5069416;28;20029;-66
2021/10/14 06:25:27;;;;;;;32.20;12.05;;;;;;;;;;5069152;28;20017;-65
2021/10/14 06:27:52;;;;;;;31.67;12.88;;;;;;;;;;5068840;28;20039;-66
2021/10/14 06:30:18;;;;;;;28.70;11.77;;;;;;;;;;5073132;28;20028;-67
2021/10/14 06:32:43;;;;;;;29.20;13.18;;;;;;;;;;5071295;28;20183;-66
2021/10/14 06:35:09;;;;;;;34.13;13.27;;;;;;;;;;5069489;28;20154;-66
2021/10/14 06:37:34;;;;;;;31.15;13.80;;;;;;;;;;5076447;28;20108;-68
2021/10/14 06:39:59;;;;;;;32.63;14.17;;;;;;;;;;5072695;28;20036;-66
2021/10/14 06:42:24;;;;;;;34.97;14.80;;;;;;;;;;5069806;28;20258;-65
2021/10/14 06:44:49;;;;;;;35.10;15.33;;;;;;;;;;5069738;28;21006;-66
2021/10/14 06:47:15;;;;;;;39.30;16.23;;;;;;;;;;5069506;28;20281;-65
2021/10/14 06:49:40;;;;;;;42.47;15.65;;;;;;;;;;5070003;28;20020;-65
2021/10/14 06:52:05;;;;;;;40.25;15.43;;;;;;;;;;5068987;28;20434;-65
2021/10/14 06:54:30;;;;;;;48.97;15.77;;;;;;;;;;5069883;28;20032;-66
2021/10/14 06:56:56;;;;;;;46.33;14.73;;;;;;;;;;5068030;28;20270;-65
2021/10/14 06:59:21;;;;;;;41.10;14.55;;;;;;;;;;5063702;28;20032;-64
2021/10/14 07:01:46;;;;;;;33.88;14.40;;;;;;;;;;5066289;28;20024;-65
2021/10/14 07:04:11;;;;;;;37.77;15.40;;;;;;;;;;5070276;28;20063;-65
2021/10/14 07:06:36;;;;;;;39.33;13.68;;;;;;;;;;5070644;28;20761;-65
2021/10/14 07:09:02;;;;;;;37.93;14.27;;;;;;;;;;5069948;28;20024;-66
2021/10/14 07:11:31;;;;;;;29.08;13.38;;;;;;;;;;5070177;28;20267;-66
2021/10/14 07:13:57;;;;;;;36.13;14.63;;;;;;;;;;5069535;28;20460;-66
2021/10/14 07:16:22;;;;;;;46.20;16.80;;;;;;;;;;5069623;28;20107;-65
2021/10/14 07:18:47;;;;;;;37.53;15.65;;;;;;;;;;5069882;28;20017;-67
2021/10/14 07:21:12;;;;;;;37.92;14.32;;;;;;;;;;5070167;28;20020;-66
2021/10/14 07:23:38;;;;;;;44.20;15.60;;;;;;;;;;5070370;28;20051;-67
2021/10/14 07:26:03;;;;;;;45.45;15.30;;;;;;;;;;5081205;28;20274;-66
2021/10/14 07:28:29;;;;;;;36.17;15.02;;;;;;;;;;5063534;28;20492;-68
2021/10/14 07:30:54;;;;;;;45.20;16.88;;;;;;;;;;5071723;28;20016;-66
2021/10/14 07:33:19;;;;;;;34.15;15.18;;;;;;;;;;5071547;28;20060;-67
2021/10/14 07:35:45;;;;;;;47.80;16.27;;;;;;;;;;5068694;28;20029;-66
2021/10/14 07:38:10;;;;;;;30.93;14.27;;;;;;;;;;5072990;28;20035;-66
2021/10/14 07:40:36;;;;;;;48.53;14.25;;;;;;;;;;5072873;28;20378;-67
2021/10/14 07:43:05;;;;;;;38.30;16.13;;;;;;;;;;5072216;28;20096;-66
2021/10/14 07:45:30;;;;;;;36.83;13.95;;;;;;;;;;5071656;28;20032;-64
2021/10/14 07:47:55;;;;;;;37.45;14.75;;;;;;;;;;5070992;28;20058;-66
2021/10/14 07:50:20;;;;;;;36.40;16.13;;;;;;;;;;5072210;28;20028;-64
2021/10/14 07:52:45;;;;;;;34.28;14.43;;;;;;;;;;5072464;28;20251;-64
2021/10/14 07:55:11;;;;;;;35.47;13.30;;;;;;;;;;5072221;28;20459;-65
2021/10/14 07:57:36;;;;;;;35.58;15.35;;;;;;;;;;5072715;28;20028;-65
2021/10/14 08:00:03;;;;;;;38.47;16.13;;;;;;;;;;5073022;28;20050;-67
2021/10/14 08:02:28;;;;;;;50.22;20.80;;;;;;;;;;5072196;28;20093;-64
2021/10/14 08:04:55;;;;;;;54.83;23.57;;;;;;;;;;5072770;28;20484;-65
2021/10/14 08:07:20;;;;;;;50.60;24.73;;;;;;;;;;5072554;28;20282;-65
2021/10/14 08:09:45;;;;;;;54.85;25.90;;;;;;;;;;5072531;28;20469;-64
2021/10/14 08:12:11;;;;;;;51.57;25.97;;;;;;;;;;5072229;28;20074;-67
2021/10/14 08:14:36;;;;;;;59.22;27.25;;;;;;;;;;5072217;28;20757;-67
2021/10/14 08:17:01;;;;;;;48.65;22.98;;;;;;;;;;5071799;28;20023;-67
2021/10/14 08:19:27;;;;;;;60.75;26.20;;;;;;;;;;5070135;28;20020;-68
2021/10/14 08:21:52;;;;;;;60.60;26.30;;;;;;;;;;5071826;28;20017;-66
2021/10/14 08:24:18;;;;;;;52.40;22.40;;;;;;;;;;5066432;28;20039;-66
2021/10/14 08:26:43;;;;;;;42.45;22.77;;;;;;;;;;5071569;28;20286;-66
2021/10/14 08:29:08;;;;;;;48.40;20.55;;;;;;;;;;5071941;28;20055;-66
2021/10/14 08:31:33;;;;;;;42.88;20.55;;;;;;;;;;5072189;28;20028;-67
2021/10/14 08:34:01;;;;;;;42.83;19.83;;;;;;;;;;5063648;28;20415;-66
2021/10/14 08:36:26;;;;;;;52.67;21.42;;;;;;;;;;5071621;28;20255;-67
2021/10/14 08:38:52;;;;;;;46.20;18.97;;;;;;;;;;5074326;28;20062;-66
2021/10/14 08:41:18;;;;;;;48.22;20.38;;;;;;;;;;5071713;28;20287;-66
2021/10/14 08:43:44;;;;;;;48.72;19.50;;;;;;;;;;5071602;28;20063;-67
2021/10/14 08:46:10;;;;;;;48.55;17.92;;;;;;;;;;5067429;28;20017;-66
2021/10/14 08:48:36;;;;;;;45.13;19.10;;;;;;;;;;5071435;28;20472;-66
2021/10/14 08:51:01;;;;;;;41.92;17.65;;;;;;;;;;5060399;28;20103;-65
2021/10/14 08:53:26;;;;;;;45.80;17.02;;;;;;;;;;5078777;28;20104;-67
2021/10/14 08:55:52;;;;;;;45.38;17.23;;;;;;;;;;5071153;28;20029;-67
2021/10/14 08:58:17;;;;;;;43.28;16.88;;;;;;;;;;5070035;28;20020;-67
2021/10/14 09:01:02;;;;;;;40.35;18.55;;;;;;;;;;5070896;28;20035;-65
2021/10/14 09:03:32;;;;;;;41.42;17.02;;;;;;;;;;5082442;28;20028;-65
2021/10/14 09:05:58;;;;;;;48.40;17.58;;;;;;;;;;5051413;28;20032;-65
2021/10/14 09:08:38;;;;;;;37.40;19.10;;;;;;;;;;5058053;28;20032;-66
2021/10/14 09:11:04;;;;;;;39.50;17.10;;;;;;;;;;5061679;28;20036;-66
2021/10/14 09:13:29;;;;;;;43.72;18.85;;;;;;;;;;5069323;28;20029;-65
2021/10/14 09:16:05;;;;;;;39.33;17.90;;;;;;;;;;5070947;28;20150;-64
2021/10/14 09:18:31;;;;;;;47.30;20.40;;;;;;;;;;5070861;28;20259;-65
2021/10/14 09:20:56;;;;;;;44.63;18.47;;;;;;;;;;5080636;28;20032;-66
2021/10/14 09:23:22;;;;;;;49.00;20.27;;;;;;;;;;5091197;28;20929;-65
2021/10/14 09:25:49;;;;;;;58.97;20.88;;;;;;;;;;5069950;28;20036;-64
2021/10/14 09:28:16;;;;;;;51.80;19.75;;;;;;;;;;5070519;28;20090;-67
2021/10/14 09:30:49;;;;;;;40.05;18.25;;;;;;;;;;5071223;28;20021;-67
2021/10/14 09:33:28;;;;;;;54.15;19.75;;;;;;;;;;5070803;28;20024;-67
2021/10/14 09:35:53;;;;;;;58.22;19.75;;;;;;;;;;5070946;28;20469;-66
2021/10/14 09:38:32;;;;;;;43.22;20.42;;;;;;;;;;5070881;28;20043;-68
2021/10/14 09:41:01;;;;;;;52.58;19.58;;;;;;;;;;5071104;28;20552;-66
2021/10/14 09:43:26;;;;;;;54.40;20.52;;;;;;;;;;5071030;28;20457;-67
2021/10/14 09:45:51;;;;;;;64.25;22.33;;;;;;;;;;5091225;28;20106;-68
2021/10/14 09:48:17;;;;;;;50.08;22.48;;;;;;;;;;5090720;28;20060;-68
2021/10/14 09:50:46;;;;;;;64.47;21.92;;;;;;;;;;5090961;28;20022;-66
2021/10/14 09:53:21;;;;;;;65.53;24.20;;;;;;;;;;5085576;28;20465;-68
2021/10/14 09:55:48;;;;;;;67.03;24.65;;;;;;;;;;5070420;28;20362;-66
2021/10/14 09:58:13;;;;;;;58.92;23.77;;;;;;;;;;5070714;28;20024;-66
2021/10/14 10:00:39;;;;;;;67.07;26.50;;;;;;;;;;5072553;28;20114;-66
2021/10/14 10:03:05;;;;;;;75.70;29.65;;;;;;;;;;5068280;28;20030;-67
2021/10/14 10:05:31;;;;;;;76.93;31.08;;;;;;;;;;5070117;28;20012;-68
2021/10/14 10:07:57;;;;;;;77.70;33.08;;;;;;;;;;5070417;28;20065;-66
2021/10/14 10:10:24;;;;;;;84.55;33.25;;;;;;;;;;5070089;28;20020;-67
2021/10/14 10:12:50;;;;;;;90.63;33.80;;;;;;;;;;5052502;28;20388;-68
2021/10/14 10:15:15;;;;;;;86.85;33.63;;;;;;;;;;5066837;28;20036;-68
2021/10/14 10:17:41;;;;;;;98.40;35.83;;;;;;;;;;5072421;28;20020;-68
2021/10/14 10:20:07;;;;;;;93.28;36.10;;;;;;;;;;5069983;28;20021;-67
2021/10/14 10:22:32;;;;;;;87.22;35.03;;;;;;;;;;5069769;28;20516;-66
2021/10/14 10:24:58;;;;;;;88.80;34.00;;;;;;;;;;5075672;28;20026;-68
2021/10/14 10:27:31;;;;;;;89.17;36.27;;;;;;;;;;5090473;28;20055;-67
2021/10/14 10:30:00;;;;;;;89.53;37.00;;;;;;;;;;5090591;28;20789;-66
2021/10/14 10:32:25;;;;;;;82.85;36.25;;;;;;;;;;5063984;28;20051;-67
2021/10/14 10:34:53;;;;;;;89.15;38.92;;;;;;;;;;5050317;28;20021;-68
2021/10/14 10:37:27;;;;;;;71.13;26.75;;;;;;;;;;5050688;28;20057;-68
2021/10/14 10:39:56;;;;;;;80.05;32.42;;;;;;;;;;5059685;28;20852;-65
2021/10/14 10:42:23;;;;;;;83.60;33.28;;;;;;;;;;5064689;28;20017;-66
2021/10/14 10:44:49;;;;;;;76.20;32.97;;;;;;;;;;5065642;28;20477;-68
2021/10/14 10:47:32;;;;;;;74.93;32.97;;;;;;;;;;5072143;28;20025;-68
2021/10/14 10:49:58;;;;;;;80.88;33.35;;;;;;;;;;5070354;28;20025;-66
2021/10/14 10:52:33;;;;;;;77.78;31.35;;;;;;;;;;5073735;28;20027;-68
2021/10/14 10:54:59;;;;;;;73.13;30.45;;;;;;;;;;5073867;28;20027;-68
2021/10/14 10:57:44;;;;;;;68.68;28.02;;;;;;;;;;5073803;28;20385;-66
2021/10/14 11:00:10;;;;;;;57.83;24.48;;;;;;;;;;5079013;28;20031;-68
2021/10/14 11:02:35;;;;;;;54.13;23.90;;;;;;;;;;5070351;28;20075;-68
2021/10/14 11:05:01;;;;;;;49.67;22.17;;;;;;;;;;5073509;28;20684;-65
2021/10/14 11:07:26;;;;;;;55.47;22.70;;;;;;;;;;5066776;28;20655;-64
2021/10/14 11:09:52;;;;;;;50.13;20.53;;;;;;;;;;5073573;28;20032;-65
2021/10/14 11:12:17;;;;;;;38.37;19.43;;;;;;;;;;5072290;28;20262;-66
2021/10/14 11:14:42;;;;;;;40.88;19.65;;;;;;;;;;5073169;28;20724;-66
2021/10/14 11:17:11;;;;;;;42.50;19.00;;;;;;;;;;5071385;28;20031;-66
2021/10/14 11:19:39;;;;;;;39.25;19.35;;;;;;;;;;5073211;28;20657;-65
2021/10/14 11:22:14;;;;;;;41.53;18.55;;;;;;;;;;5072768;28;20020;-64
2021/10/14 11:24:42;;;;;;;41.35;18.60;;;;;;;;;;5071914;28;20028;-64
2021/10/14 11:27:14;;;;;;;47.20;19.85;;;;;;;;;;5070813;28;20028;-64
2021/10/14 11:29:39;;;;;;;45.00;17.77;;;;;;;;;;5073095;28;20017;-65
2021/10/14 11:32:07;;;;;;;37.25;16.10;;;;;;;;;;5072837;28;20473;-66
2021/10/14 11:34:32;;;;;;;33.72;16.17;;;;;;;;;;5073282;28;20034;-66
2021/10/14 11:36:58;;;;;;;29.98;15.63;;;;;;;;;;5073208;28;20016;-65
2021/10/14 11:39:32;;;;;;;31.52;16.00;;;;;;;;;;5072951;28;20035;-67
2021/10/14 11:41:59;;;;;;;28.45;14.45;;;;;;;;;;5072341;28;20103;-67
2021/10/14 11:44:26;;;;;;;27.33;13.50;;;;;;;;;;5072953;28;20023;-66
2021/10/14 11:46:51;;;;;;;28.83;15.18;;;;;;;;;;5073012;28;20031;-66
2021/10/14 11:49:17;;;;;;;33.92;14.07;;;;;;;;;;5072184;28;20020;-64
2021/10/14 11:51:42;;;;;;;23.75;12.38;;;;;;;;;;5072932;28;20048;-67
2021/10/14 11:54:09;;;;;;;26.38;12.32;;;;;;;;;;5072764;28;20013;-64
2021/10/14 11:56:41;;;;;;;36.50;13.25;;;;;;;;;;5072868;28;20021;-69
2021/10/14 11:59:06;;;;;;;33.65;12.48;;;;;;;;;;5053240;28;20017;-68
2021/10/14 12:01:32;;;;;;;31.83;13.20;;;;;;;;;;5063234;28;20070;-65
2021/10/14 12:03:58;;;;;;;26.58;12.80;;;;;;;;;;5070590;28;20009;-64
2021/10/14 12:06:24;;;;;;;42.35;14.38;;;;;;;;;;5072713;28;20027;-65
2021/10/14 12:08:50;;;;;;;32.20;13.43;;;;;;;;;;5072696;28;20012;-65
2021/10/14 12:11:16;;;;;;;27.17;13.75;;;;;;;;;;5072241;28;20067;-67
2021/10/14 12:13:41;;;;;;;33.75;14.05;;;;;;;;;;5071633;28;20024;-67
2021/10/14 12:16:06;;;;;;;28.40;13.15;;;;;;;;;;5053783;28;20021;-64
2021/10/14 12:18:32;;;;;;;26.73;11.90;;;;;;;;;;5072070;28;20098;-65
2021/10/14 12:20:57;;;;;;;29.05;13.13;;;;;;;;;;5073213;28;20465;-67
2021/10/14 12:23:26;;;;;;;25.13;11.70;;;;;;;;;;5082520;28;20532;-65
2021/10/14 12:25:51;;;;;;;23.80;11.53;;;;;;;;;;5066912;28;20016;-67
2021/10/14 12:28:23;;;;;;;19.42;10.18;;;;;;;;;;5088663;22;20044;-68
2021/10/14 12:30:48;;;;;;;23.60;11.90;;;;;;;;;;5065381;28;20021;-68
2021/10/14 12:33:13;;;;;;;21.63;9.43;;;;;;;;;;5071802;28;20035;-67
2021/10/14 12:35:40;;;;;;;17.77;9.20;;;;;;;;;;5053742;28;20912;-68
2021/10/14 12:38:11;;;;;;;22.98;8.80;;;;;;;;;;5053248;28;20121;-68
2021/10/14 12:40:42;;;;;;;21.30;9.10;;;;;;;;;;5063580;28;20025;-68
2021/10/14 12:43:13;;;;;;;17.40;8.60;;;;;;;;;;5070351;28;20150;-68
2021/10/14 12:48:19;;;;;;;16.63;9.18;;;;;;;;;;5071663;28;20040;-68
2021/10/14 12:50:52;;;;;;;;;;;;;;;;;;5072322;28;20058;-67
2021/10/14 12:53:18;;;;;;;22.17;9.27;;;;;;;;;;5069733;28;19912;-68
2021/10/14 12:56:00;;;;;;;25.55;8.35;;;;;;;;;;5066233;28;20024;-68
2021/10/14 12:58:26;;;;;;;16.58;8.93;;;;;;;;;;5061178;28;20040;-68
2021/10/14 13:00:58;;;;;;;17.13;8.15;;;;;;;;;;5050590;28;20490;-68
2021/10/14 13:03:23;;;;;;;21.00;9.23;;;;;;;;;;5063388;28;20017;-68
2021/10/14 13:05:49;;;;;;;20.08;7.80;;;;;;;;;;5071260;28;20024;-67
2021/10/14 13:08:14;;;;;;;17.60;7.83;;;;;;;;;;5070861;28;20008;-68
2021/10/14 13:10:39;;;;;;;17.90;8.68;;;;;;;;;;5070884;28;20275;-68
2021/10/14 13:13:05;;;;;;;11.97;7.77;;;;;;;;;;5069398;28;20107;-68
2021/10/14 13:15:30;;;;;;;21.80;8.98;;;;;;;;;;5058864;28;20259;-68
2021/10/14 13:17:57;;;;;;;14.52;7.00;;;;;;;;;;5055216;28;20025;-67
2021/10/14 13:20:22;;;;;;;17.00;6.78;;;;;;;;;;5066916;28;20024;-68
2021/10/14 13:22:47;;;;;;;14.63;7.20;;;;;;;;;;5069933;28;20024;-66
2021/10/14 13:25:12;;;;;;;16.83;5.57;;;;;;;;;;5061779;28;20017;-68
2021/10/14 13:27:38;;;;;;;18.83;7.70;;;;;;;;;;5050519;28;20301;-68
2021/10/14 13:30:03;;;;;;;15.03;7.00;;;;;;;;;;5064597;28;20785;-68
2021/10/14 13:32:28;;;;;;;14.07;6.50;;;;;;;;;;5070470;28;20258;-67
2021/10/14 13:34:54;;;;;;;13.57;6.00;;;;;;;;;;5067692;28;20066;-67
2021/10/14 13:37:20;;;;;;;15.30;6.72;;;;;;;;;;5061637;28;20278;-69
2021/10/14 13:39:46;;;;;;;11.52;5.10;;;;;;;;;;5070488;28;20024;-65
2021/10/14 13:42:11;;;;;;;8.98;5.65;;;;;;;;;;5070413;28;20662;-65
2021/10/14 13:44:37;;;;;;;14.10;5.07;;;;;;;;;;5070522;28;20020;-67
2021/10/14 13:47:02;;;;;;;12.30;5.40;;;;;;;;;;5055500;28;20397;-69
2021/10/14 13:49:27;;;;;;;12.03;5.40;;;;;;;;;;5050443;28;20613;-67
2021/10/14 13:51:52;;;;;;;12.45;5.82;;;;;;;;;;5050640;28;20262;-67
2021/10/14 13:54:18;;;;;;;15.23;6.03;;;;;;;;;;5069248;28;20025;-68
2021/10/14 13:56:43;;;;;;;11.40;4.75;;;;;;;;;;5070416;28;20012;-66
2021/10/14 13:59:08;;;;;;;15.93;5.40;;;;;;;;;;5070630;28;20015;-67
2021/10/14 14:01:34;;;;;;;14.93;5.13;;;;;;;;;;5070298;28;20272;-67
2021/10/14 14:03:59;;;;;;;11.15;5.97;;;;;;;;;;5068473;28;20021;-68
2021/10/14 14:06:35;;;;;;;10.52;5.00;;;;;;;;;;5070436;28;20032;-68
2021/10/14 14:09:01;;;;;;;16.50;4.47;;;;;;;;;;5070537;28;20017;-68
2021/10/14 14:11:26;;;;;;;9.75;5.38;;;;;;;;;;5069259;28;20030;-67
2021/10/14 14:13:51;;;;;;;10.27;4.70;;;;;;;;;;5070032;28;20476;-68
2021/10/14 14:16:16;;;;;;;16.23;4.90;;;;;;;;;;5070231;28;20095;-67